sensor_id;sensor_type;location;lat;lon;timestamp;P1;durP1;ratioP1;P2;durP2;ratioP2
12267;SDS011;6196;48.398;11.736;2022-07-05T00:02:14;12.00;;;3.90;;
12267;SDS011;6196;48.398;11.736;2022-07-05T00:04:42;4.07;;;3.70;;
12267;SDS011;6196;48.398;11.736;2022-07-05T00:07:09;3.50;;;3.13;;
12267;SDS011;6196;48.398;11.736;2022-07-05T00:09:46;4.47;;;3.20;;
12267;SDS011;6196;48.398;11.736;2022-07-05T00:12:20;3.00;;;2.80;;
12267;SDS011;6196;48.398;11.736;2022-07-05T00:14:50;4.40;;;3.27;;
12267;SDS011;6196;48.398;11.736;2022-07-05T00:17:17;3.70;;;3.40;;
12267;SDS011;6196;48.398;11.736;2022-07-05T00:19:44;3.90;;;3.40;;
12267;SDS011;6196;48.398;11.736;2022-07-05T00:22:11;4.27;;;3.53;;
12267;SDS011;6196;48.398;11.736;2022-07-05T00:24:38;3.87;;;3.43;;
12267;SDS011;6196;48.398;11.736;2022-07-05T00:27:05;3.60;;;2.83;;
12267;SDS011;6196;48.398;11.736;2022-07-05T00:29:32;4.57;;;3.57;;
12267;SDS011;6196;48.398;11.736;2022-07-05T00:31:59;4.10;;;3.23;;
12267;SDS011;6196;48.398;11.736;2022-07-05T00:34:26;3.53;;;3.17;;
12267;SDS011;6196;48.398;11.736;2022-07-05T00:36:53;5.30;;;3.93;;
12267;SDS011;6196;48.398;11.736;2022-07-05T00:39:20;4.37;;;3.80;;
12267;SDS011;6196;48.398;11.736;2022-07-05T00:41:46;3.87;;;3.40;;
12267;SDS011;6196;48.398;11.736;2022-07-05T00:44:13;6.30;;;3.97;;
12267;SDS011;6196;48.398;11.736;2022-07-05T00:46:41;4.30;;;3.90;;
12267;SDS011;6196;48.398;11.736;2022-07-05T00:49:10;4.60;;;4.17;;
12267;SDS011;6196;48.398;11.736;2022-07-05T00:51:37;5.80;;;4.60;;
12267;SDS011;6196;48.398;11.736;2022-07-05T00:54:26;5.07;;;4.40;;
12267;SDS011;6196;48.398;11.736;2022-07-05T00:56:54;4.60;;;4.20;;
12267;SDS011;6196;48.398;11.736;2022-07-05T00:59:25;4.30;;;3.90;;
12267;SDS011;6196;48.398;11.736;2022-07-05T01:01:53;5.00;;;4.27;;
12267;SDS011;6196;48.398;11.736;2022-07-05T01:04:20;4.80;;;4.03;;
12267;SDS011;6196;48.398;11.736;2022-07-05T01:06:48;6.27;;;4.50;;
12267;SDS011;6196;48.398;11.736;2022-07-05T01:09:17;4.77;;;3.70;;
12267;SDS011;6196;48.398;11.736;2022-07-05T01:11:46;5.27;;;3.57;;
12267;SDS011;6196;48.398;11.736;2022-07-05T01:14:16;4.87;;;3.60;;
12267;SDS011;6196;48.398;11.736;2022-07-05T01:16:46;7.33;;;3.50;;
12267;SDS011;6196;48.398;11.736;2022-07-05T01:19:15;4.17;;;3.63;;
12267;SDS011;6196;48.398;11.736;2022-07-05T01:21:44;5.63;;;3.50;;
12267;SDS011;6196;48.398;11.736;2022-07-05T01:24:14;3.77;;;3.23;;
12267;SDS011;6196;48.398;11.736;2022-07-05T01:26:44;6.10;;;3.60;;
12267;SDS011;6196;48.398;11.736;2022-07-05T01:29:14;6.30;;;3.47;;
12267;SDS011;6196;48.398;11.736;2022-07-05T01:31:42;4.47;;;3.20;;
12267;SDS011;6196;48.398;11.736;2022-07-05T01:34:09;8.40;;;3.67;;
12267;SDS011;6196;48.398;11.736;2022-07-05T01:36:36;6.23;;;3.13;;
12267;SDS011;6196;48.398;11.736;2022-07-05T01:39:05;5.57;;;3.13;;
12267;SDS011;6196;48.398;11.736;2022-07-05T01:41:33;3.60;;;3.23;;
12267;SDS011;6196;48.398;11.736;2022-07-05T01:44:01;3.67;;;3.30;;
12267;SDS011;6196;48.398;11.736;2022-07-05T01:46:30;5.13;;;3.20;;
12267;SDS011;6196;48.398;11.736;2022-07-05T01:49:00;4.77;;;3.03;;
12267;SDS011;6196;48.398;11.736;2022-07-05T01:51:42;7.23;;;3.30;;
12267;SDS011;6196;48.398;11.736;2022-07-05T01:54:15;4.40;;;3.17;;
12267;SDS011;6196;48.398;11.736;2022-07-05T01:56:44;4.20;;;3.37;;
12267;SDS011;6196;48.398;11.736;2022-07-05T01:59:11;4.90;;;3.50;;
12267;SDS011;6196;48.398;11.736;2022-07-05T02:01:39;4.90;;;3.20;;
12267;SDS011;6196;48.398;11.736;2022-07-05T02:04:07;6.27;;;3.47;;
12267;SDS011;6196;48.398;11.736;2022-07-05T02:06:36;3.63;;;2.97;;
12267;SDS011;6196;48.398;11.736;2022-07-05T02:09:05;6.40;;;3.17;;
12267;SDS011;6196;48.398;11.736;2022-07-05T02:11:33;3.83;;;2.87;;
12267;SDS011;6196;48.398;11.736;2022-07-05T02:14:01;3.80;;;2.93;;
12267;SDS011;6196;48.398;11.736;2022-07-05T02:16:28;3.87;;;2.90;;
12267;SDS011;6196;48.398;11.736;2022-07-05T02:18:55;4.50;;;3.10;;
12267;SDS011;6196;48.398;11.736;2022-07-05T02:21:23;3.57;;;2.90;;
12267;SDS011;6196;48.398;11.736;2022-07-05T02:23:50;5.17;;;3.50;;
12267;SDS011;6196;48.398;11.736;2022-07-05T02:26:17;3.40;;;3.07;;
12267;SDS011;6196;48.398;11.736;2022-07-05T02:28:45;6.70;;;2.90;;
12267;SDS011;6196;48.398;11.736;2022-07-05T02:31:12;4.07;;;3.00;;
12267;SDS011;6196;48.398;11.736;2022-07-05T02:33:39;4.90;;;3.37;;
12267;SDS011;6196;48.398;11.736;2022-07-05T02:36:10;4.40;;;2.97;;
12267;SDS011;6196;48.398;11.736;2022-07-05T02:38:39;3.30;;;2.97;;
12267;SDS011;6196;48.398;11.736;2022-07-05T02:41:07;6.67;;;2.90;;
12267;SDS011;6196;48.398;11.736;2022-07-05T02:43:36;7.77;;;3.27;;
12267;SDS011;6196;48.398;11.736;2022-07-05T02:46:04;4.77;;;3.10;;
12267;SDS011;6196;48.398;11.736;2022-07-05T02:48:34;4.90;;;2.80;;
12267;SDS011;6196;48.398;11.736;2022-07-05T02:51:02;4.83;;;2.90;;
12267;SDS011;6196;48.398;11.736;2022-07-05T02:53:30;3.83;;;3.23;;
12267;SDS011;6196;48.398;11.736;2022-07-05T02:55:57;5.80;;;3.13;;
12267;SDS011;6196;48.398;11.736;2022-07-05T02:58:24;5.50;;;2.90;;
12267;SDS011;6196;48.398;11.736;2022-07-05T03:00:51;7.03;;;3.03;;
12267;SDS011;6196;48.398;11.736;2022-07-05T03:03:18;7.03;;;3.07;;
12267;SDS011;6196;48.398;11.736;2022-07-05T03:05:45;3.33;;;2.97;;
12267;SDS011;6196;48.398;11.736;2022-07-05T03:08:12;3.57;;;2.80;;
12267;SDS011;6196;48.398;11.736;2022-07-05T03:10:38;5.93;;;3.27;;
12267;SDS011;6196;48.398;11.736;2022-07-05T03:13:05;5.07;;;3.20;;
12267;SDS011;6196;48.398;11.736;2022-07-05T03:15:32;5.57;;;3.13;;
12267;SDS011;6196;48.398;11.736;2022-07-05T03:17:59;5.07;;;3.27;;
12267;SDS011;6196;48.398;11.736;2022-07-05T03:20:26;5.97;;;2.63;;
12267;SDS011;6196;48.398;11.736;2022-07-05T03:22:53;6.90;;;3.17;;
12267;SDS011;6196;48.398;11.736;2022-07-05T03:25:20;4.40;;;3.70;;
12267;SDS011;6196;48.398;11.736;2022-07-05T03:27:47;3.70;;;3.37;;
12267;SDS011;6196;48.398;11.736;2022-07-05T03:30:14;6.83;;;3.40;;
12267;SDS011;6196;48.398;11.736;2022-07-05T03:32:41;6.03;;;3.20;;
12267;SDS011;6196;48.398;11.736;2022-07-05T03:35:08;3.33;;;2.83;;
12267;SDS011;6196;48.398;11.736;2022-07-05T03:37:35;7.50;;;3.17;;
12267;SDS011;6196;48.398;11.736;2022-07-05T03:40:02;4.07;;;3.23;;
12267;SDS011;6196;48.398;11.736;2022-07-05T03:42:30;5.70;;;3.17;;
12267;SDS011;6196;48.398;11.736;2022-07-05T03:44:57;6.20;;;3.30;;
12267;SDS011;6196;48.398;11.736;2022-07-05T03:47:23;4.60;;;3.57;;
12267;SDS011;6196;48.398;11.736;2022-07-05T03:49:50;6.37;;;2.97;;
12267;SDS011;6196;48.398;11.736;2022-07-05T03:52:17;4.17;;;3.50;;
12267;SDS011;6196;48.398;11.736;2022-07-05T03:54:51;6.60;;;3.17;;
12267;SDS011;6196;48.398;11.736;2022-07-05T03:57:17;4.43;;;3.33;;
12267;SDS011;6196;48.398;11.736;2022-07-05T03:59:44;6.33;;;3.50;;
12267;SDS011;6196;48.398;11.736;2022-07-05T04:02:12;3.87;;;3.43;;
12267;SDS011;6196;48.398;11.736;2022-07-05T04:04:38;5.37;;;3.20;;
12267;SDS011;6196;48.398;11.736;2022-07-05T04:07:05;5.23;;;3.37;;
12267;SDS011;6196;48.398;11.736;2022-07-05T04:09:32;8.13;;;4.03;;
12267;SDS011;6196;48.398;11.736;2022-07-05T04:11:59;7.60;;;3.47;;
12267;SDS011;6196;48.398;11.736;2022-07-05T04:14:26;3.97;;;3.47;;
12267;SDS011;6196;48.398;11.736;2022-07-05T04:16:53;6.53;;;3.60;;
12267;SDS011;6196;48.398;11.736;2022-07-05T04:19:20;5.90;;;3.40;;
12267;SDS011;6196;48.398;11.736;2022-07-05T04:21:47;9.07;;;3.67;;
12267;SDS011;6196;48.398;11.736;2022-07-05T04:24:14;4.70;;;3.47;;
12267;SDS011;6196;48.398;11.736;2022-07-05T04:26:41;4.77;;;3.50;;
12267;SDS011;6196;48.398;11.736;2022-07-05T04:29:08;5.87;;;3.50;;
12267;SDS011;6196;48.398;11.736;2022-07-05T04:31:35;6.90;;;3.63;;
12267;SDS011;6196;48.398;11.736;2022-07-05T04:34:02;6.13;;;3.87;;
12267;SDS011;6196;48.398;11.736;2022-07-05T04:36:29;3.67;;;3.37;;
12267;SDS011;6196;48.398;11.736;2022-07-05T04:38:56;4.40;;;3.30;;
12267;SDS011;6196;48.398;11.736;2022-07-05T04:41:23;7.33;;;3.23;;
12267;SDS011;6196;48.398;11.736;2022-07-05T04:43:50;5.63;;;3.50;;
12267;SDS011;6196;48.398;11.736;2022-07-05T04:46:17;6.50;;;3.73;;
12267;SDS011;6196;48.398;11.736;2022-07-05T04:48:43;4.47;;;3.00;;
12267;SDS011;6196;48.398;11.736;2022-07-05T04:51:10;3.90;;;3.50;;
12267;SDS011;6196;48.398;11.736;2022-07-05T04:53:37;6.73;;;3.80;;
12267;SDS011;6196;48.398;11.736;2022-07-05T04:56:04;5.97;;;3.73;;
12267;SDS011;6196;48.398;11.736;2022-07-05T04:58:32;5.10;;;3.60;;
12267;SDS011;6196;48.398;11.736;2022-07-05T05:00:59;4.50;;;3.47;;
12267;SDS011;6196;48.398;11.736;2022-07-05T05:03:26;5.67;;;4.03;;
12267;SDS011;6196;48.398;11.736;2022-07-05T05:05:53;6.50;;;4.03;;
12267;SDS011;6196;48.398;11.736;2022-07-05T05:08:20;8.07;;;4.13;;
12267;SDS011;6196;48.398;11.736;2022-07-05T05:10:46;6.37;;;4.17;;
12267;SDS011;6196;48.398;11.736;2022-07-05T05:13:13;8.43;;;4.50;;
12267;SDS011;6196;48.398;11.736;2022-07-05T05:15:40;6.63;;;4.10;;
12267;SDS011;6196;48.398;11.736;2022-07-05T05:18:07;6.93;;;4.07;;
12267;SDS011;6196;48.398;11.736;2022-07-05T05:20:34;7.70;;;3.97;;
12267;SDS011;6196;48.398;11.736;2022-07-05T05:23:06;7.93;;;4.50;;
12267;SDS011;6196;48.398;11.736;2022-07-05T05:25:33;6.30;;;4.20;;
12267;SDS011;6196;48.398;11.736;2022-07-05T05:28:01;7.50;;;4.30;;
12267;SDS011;6196;48.398;11.736;2022-07-05T05:30:28;6.50;;;4.50;;
12267;SDS011;6196;48.398;11.736;2022-07-05T05:32:55;4.80;;;4.20;;
12267;SDS011;6196;48.398;11.736;2022-07-05T05:35:21;9.13;;;4.40;;
12267;SDS011;6196;48.398;11.736;2022-07-05T05:37:53;5.83;;;3.93;;
12267;SDS011;6196;48.398;11.736;2022-07-05T05:40:21;6.73;;;4.47;;
12267;SDS011;6196;48.398;11.736;2022-07-05T05:42:50;5.77;;;4.33;;
12267;SDS011;6196;48.398;11.736;2022-07-05T05:45:18;8.83;;;4.87;;
12267;SDS011;6196;48.398;11.736;2022-07-05T05:47:47;4.60;;;4.20;;
12267;SDS011;6196;48.398;11.736;2022-07-05T05:50:21;10.90;;;5.23;;
12267;SDS011;6196;48.398;11.736;2022-07-05T05:52:56;5.13;;;4.60;;
12267;SDS011;6196;48.398;11.736;2022-07-05T05:55:24;6.50;;;4.70;;
12267;SDS011;6196;48.398;11.736;2022-07-05T05:57:52;8.33;;;4.50;;
12267;SDS011;6196;48.398;11.736;2022-07-05T06:00:20;6.63;;;4.50;;
12267;SDS011;6196;48.398;11.736;2022-07-05T06:02:48;6.43;;;3.73;;
12267;SDS011;6196;48.398;11.736;2022-07-05T06:05:17;6.27;;;4.00;;
12267;SDS011;6196;48.398;11.736;2022-07-05T06:10:23;7.33;;;4.13;;
12267;SDS011;6196;48.398;11.736;2022-07-05T06:12:53;7.40;;;4.63;;
12267;SDS011;6196;48.398;11.736;2022-07-05T06:15:24;5.77;;;3.87;;
12267;SDS011;6196;48.398;11.736;2022-07-05T06:17:52;4.77;;;4.13;;
12267;SDS011;6196;48.398;11.736;2022-07-05T06:20:20;4.30;;;3.90;;
12267;SDS011;6196;48.398;11.736;2022-07-05T06:22:50;5.70;;;4.17;;
12267;SDS011;6196;48.398;11.736;2022-07-05T06:25:18;5.27;;;3.60;;
12267;SDS011;6196;48.398;11.736;2022-07-05T06:27:50;4.60;;;3.80;;
12267;SDS011;6196;48.398;11.736;2022-07-05T06:30:20;5.60;;;3.73;;
12267;SDS011;6196;48.398;11.736;2022-07-05T06:32:50;4.13;;;3.40;;
12267;SDS011;6196;48.398;11.736;2022-07-05T06:35:18;4.00;;;2.63;;
12267;SDS011;6196;48.398;11.736;2022-07-05T06:40:30;4.07;;;3.23;;
12267;SDS011;6196;48.398;11.736;2022-07-05T06:43:00;3.47;;;3.17;;
12267;SDS011;6196;48.398;11.736;2022-07-05T06:45:30;5.97;;;2.83;;
12267;SDS011;6196;48.398;11.736;2022-07-05T06:47:58;7.40;;;3.33;;
12267;SDS011;6196;48.398;11.736;2022-07-05T06:50:28;3.80;;;3.00;;
12267;SDS011;6196;48.398;11.736;2022-07-05T06:52:56;4.47;;;3.17;;
12267;SDS011;6196;48.398;11.736;2022-07-05T06:55:24;4.50;;;3.47;;
12267;SDS011;6196;48.398;11.736;2022-07-05T06:57:58;4.00;;;2.93;;
12267;SDS011;6196;48.398;11.736;2022-07-05T07:00:39;4.40;;;2.73;;
12267;SDS011;6196;48.398;11.736;2022-07-05T07:03:27;4.37;;;2.73;;
12267;SDS011;6196;48.398;11.736;2022-07-05T07:06:14;2.90;;;2.13;;
12267;SDS011;6196;48.398;11.736;2022-07-05T07:08:42;3.37;;;2.33;;
12267;SDS011;6196;48.398;11.736;2022-07-05T07:11:27;2.97;;;2.30;;
12267;SDS011;6196;48.398;11.736;2022-07-05T07:13:55;5.53;;;2.00;;
12267;SDS011;6196;48.398;11.736;2022-07-05T07:16:21;4.33;;;2.50;;
12267;SDS011;6196;48.398;11.736;2022-07-05T07:18:48;3.77;;;2.20;;
12267;SDS011;6196;48.398;11.736;2022-07-05T07:21:36;3.10;;;2.00;;
12267;SDS011;6196;48.398;11.736;2022-07-05T07:24:03;4.40;;;2.17;;
12267;SDS011;6196;48.398;11.736;2022-07-05T07:26:30;5.13;;;3.07;;
12267;SDS011;6196;48.398;11.736;2022-07-05T07:29:16;5.77;;;2.30;;
12267;SDS011;6196;48.398;11.736;2022-07-05T07:31:43;3.60;;;2.20;;
12267;SDS011;6196;48.398;11.736;2022-07-05T07:34:11;3.37;;;2.10;;
12267;SDS011;6196;48.398;11.736;2022-07-05T07:36:37;3.93;;;2.00;;
12267;SDS011;6196;48.398;11.736;2022-07-05T07:39:04;2.67;;;1.93;;
12267;SDS011;6196;48.398;11.736;2022-07-05T07:41:31;2.80;;;2.33;;
12267;SDS011;6196;48.398;11.736;2022-07-05T07:43:58;2.23;;;2.00;;
12267;SDS011;6196;48.398;11.736;2022-07-05T07:46:25;4.53;;;2.10;;
12267;SDS011;6196;48.398;11.736;2022-07-05T07:48:53;3.03;;;2.00;;
12267;SDS011;6196;48.398;11.736;2022-07-05T07:51:21;4.17;;;2.07;;
12267;SDS011;6196;48.398;11.736;2022-07-05T07:53:48;3.93;;;2.30;;
12267;SDS011;6196;48.398;11.736;2022-07-05T07:56:15;5.20;;;2.07;;
12267;SDS011;6196;48.398;11.736;2022-07-05T07:58:43;4.78;;;1.95;;
12267;SDS011;6196;48.398;11.736;2022-07-05T08:01:10;2.88;;;1.80;;
12267;SDS011;6196;48.398;11.736;2022-07-05T08:03:37;3.47;;;2.00;;
12267;SDS011;6196;48.398;11.736;2022-07-05T08:06:05;2.72;;;1.75;;
12267;SDS011;6196;48.398;11.736;2022-07-05T08:08:40;5.20;;;2.15;;
12267;SDS011;6196;48.398;11.736;2022-07-05T08:11:09;4.35;;;1.88;;
12267;SDS011;6196;48.398;11.736;2022-07-05T08:13:37;3.22;;;1.80;;
12267;SDS011;6196;48.398;11.736;2022-07-05T08:16:07;3.38;;;2.13;;
12267;SDS011;6196;48.398;11.736;2022-07-05T08:18:35;1.95;;;1.77;;
12267;SDS011;6196;48.398;11.736;2022-07-05T08:21:20;1.90;;;1.60;;
12267;SDS011;6196;48.398;11.736;2022-07-05T08:24:06;2.40;;;2.00;;
12267;SDS011;6196;48.398;11.736;2022-07-05T08:26:35;2.67;;;1.90;;
12267;SDS011;6196;48.398;11.736;2022-07-05T08:29:04;4.15;;;2.30;;
12267;SDS011;6196;48.398;11.736;2022-07-05T08:31:38;3.10;;;1.90;;
12267;SDS011;6196;48.398;11.736;2022-07-05T08:34:10;2.03;;;1.70;;
12267;SDS011;6196;48.398;11.736;2022-07-05T08:36:38;2.55;;;1.92;;
12267;SDS011;6196;48.398;11.736;2022-07-05T08:39:07;3.83;;;2.00;;
12267;SDS011;6196;48.398;11.736;2022-07-05T08:41:38;4.23;;;1.80;;
12267;SDS011;6196;48.398;11.736;2022-07-05T08:44:09;1.60;;;1.50;;
12267;SDS011;6196;48.398;11.736;2022-07-05T08:46:39;2.97;;;1.88;;
12267;SDS011;6196;48.398;11.736;2022-07-05T08:49:07;1.75;;;1.60;;
12267;SDS011;6196;48.398;11.736;2022-07-05T08:51:38;2.33;;;1.70;;
12267;SDS011;6196;48.398;11.736;2022-07-05T08:54:10;3.13;;;1.80;;
12267;SDS011;6196;48.398;11.736;2022-07-05T08:56:42;2.33;;;1.50;;
12267;SDS011;6196;48.398;11.736;2022-07-05T08:59:30;1.63;;;1.23;;
12267;SDS011;6196;48.398;11.736;2022-07-05T09:01:57;3.35;;;1.30;;
12267;SDS011;6196;48.398;11.736;2022-07-05T09:04:27;2.08;;;1.35;;
12267;SDS011;6196;48.398;11.736;2022-07-05T09:07:01;1.98;;;1.50;;
12267;SDS011;6196;48.398;11.736;2022-07-05T09:09:34;1.90;;;1.45;;
12267;SDS011;6196;48.398;11.736;2022-07-05T09:12:13;4.47;;;1.58;;
12267;SDS011;6196;48.398;11.736;2022-07-05T09:14:54;1.40;;;1.30;;
12267;SDS011;6196;48.398;11.736;2022-07-05T09:17:23;2.50;;;1.33;;
12267;SDS011;6196;48.398;11.736;2022-07-05T09:20:04;2.80;;;1.10;;
12267;SDS011;6196;48.398;11.736;2022-07-05T09:22:49;3.47;;;1.40;;
12267;SDS011;6196;48.398;11.736;2022-07-05T09:25:22;4.07;;;1.30;;
12267;SDS011;6196;48.398;11.736;2022-07-05T09:28:05;1.88;;;1.05;;
12267;SDS011;6196;48.398;11.736;2022-07-05T09:30:36;4.32;;;1.50;;
12267;SDS011;6196;48.398;11.736;2022-07-05T09:33:08;2.28;;;1.25;;
12267;SDS011;6196;48.398;11.736;2022-07-05T09:35:39;4.20;;;1.20;;
12267;SDS011;6196;48.398;11.736;2022-07-05T09:38:25;2.85;;;1.40;;
12267;SDS011;6196;48.398;11.736;2022-07-05T09:40:53;4.60;;;1.10;;
12267;SDS011;6196;48.398;11.736;2022-07-05T09:43:24;3.13;;;1.30;;
12267;SDS011;6196;48.398;11.736;2022-07-05T09:45:56;2.33;;;1.00;;
12267;SDS011;6196;48.398;11.736;2022-07-05T09:48:31;2.67;;;1.20;;
12267;SDS011;6196;48.398;11.736;2022-07-05T09:51:11;2.10;;;0.98;;
12267;SDS011;6196;48.398;11.736;2022-07-05T09:54:00;3.47;;;1.40;;
12267;SDS011;6196;48.398;11.736;2022-07-05T09:56:47;1.60;;;0.93;;
12267;SDS011;6196;48.398;11.736;2022-07-05T09:59:18;1.17;;;0.90;;
12267;SDS011;6196;48.398;11.736;2022-07-05T10:01:48;2.45;;;1.20;;
12267;SDS011;6196;48.398;11.736;2022-07-05T10:04:16;1.60;;;0.80;;
12267;SDS011;6196;48.398;11.736;2022-07-05T10:06:44;4.68;;;1.00;;
12267;SDS011;6196;48.398;11.736;2022-07-05T10:09:12;1.45;;;0.88;;
12267;SDS011;6196;48.398;11.736;2022-07-05T10:11:41;2.75;;;1.20;;
12267;SDS011;6196;48.398;11.736;2022-07-05T10:14:28;1.05;;;0.90;;
12267;SDS011;6196;48.398;11.736;2022-07-05T10:17:00;2.15;;;1.10;;
12267;SDS011;6196;48.398;11.736;2022-07-05T10:19:28;2.30;;;1.63;;
12267;SDS011;6196;48.398;11.736;2022-07-05T10:22:01;2.58;;;0.90;;
12267;SDS011;6196;48.398;11.736;2022-07-05T10:24:46;1.33;;;1.20;;
12267;SDS011;6196;48.398;11.736;2022-07-05T10:27:15;3.90;;;1.10;;
12267;SDS011;6196;48.398;11.736;2022-07-05T10:29:44;1.67;;;1.00;;
12267;SDS011;6196;48.398;11.736;2022-07-05T10:32:11;1.83;;;0.90;;
12267;SDS011;6196;48.398;11.736;2022-07-05T10:34:40;2.17;;;0.88;;
12267;SDS011;6196;48.398;11.736;2022-07-05T10:37:25;2.25;;;1.20;;
12267;SDS011;6196;48.398;11.736;2022-07-05T10:39:56;1.10;;;1.00;;
12267;SDS011;6196;48.398;11.736;2022-07-05T10:42:26;1.60;;;1.02;;
12267;SDS011;6196;48.398;11.736;2022-07-05T10:44:57;2.58;;;1.05;;
12267;SDS011;6196;48.398;11.736;2022-07-05T10:47:24;1.67;;;0.95;;
12267;SDS011;6196;48.398;11.736;2022-07-05T10:50:02;2.45;;;1.00;;
12267;SDS011;6196;48.398;11.736;2022-07-05T10:52:30;1.35;;;0.95;;
12267;SDS011;6196;48.398;11.736;2022-07-05T11:03:42;2.10;;;1.20;;
12267;SDS011;6196;48.398;11.736;2022-07-05T11:06:20;2.42;;;1.02;;
12267;SDS011;6196;48.398;11.736;2022-07-05T11:14:51;2.28;;;1.45;;
12267;SDS011;6196;48.398;11.736;2022-07-05T11:17:19;2.58;;;1.50;;
12267;SDS011;6196;48.398;11.736;2022-07-05T11:20:16;2.97;;;1.30;;
12267;SDS011;6196;48.398;11.736;2022-07-05T11:25:53;1.63;;;1.08;;
12267;SDS011;6196;48.398;11.736;2022-07-05T11:28:22;4.45;;;1.25;;
12267;SDS011;6196;48.398;11.736;2022-07-05T11:30:51;1.40;;;0.90;;
12267;SDS011;6196;48.398;11.736;2022-07-05T11:33:28;2.75;;;1.20;;
12267;SDS011;6196;48.398;11.736;2022-07-05T11:36:00;1.55;;;1.30;;
12267;SDS011;6196;48.398;11.736;2022-07-05T11:38:27;2.03;;;1.27;;
12267;SDS011;6196;48.398;11.736;2022-07-05T11:41:16;3.72;;;1.20;;
12267;SDS011;6196;48.398;11.736;2022-07-05T11:43:43;1.95;;;1.17;;
12267;SDS011;6196;48.398;11.736;2022-07-05T11:46:21;3.08;;;1.25;;
12267;SDS011;6196;48.398;11.736;2022-07-05T11:49:09;1.50;;;1.38;;
12267;SDS011;6196;48.398;11.736;2022-07-05T11:51:36;2.20;;;1.08;;
12267;SDS011;6196;48.398;11.736;2022-07-05T11:54:03;2.42;;;1.50;;
12267;SDS011;6196;48.398;11.736;2022-07-05T11:56:41;1.15;;;1.00;;
12267;SDS011;6196;48.398;11.736;2022-07-05T11:59:21;2.53;;;1.33;;
12267;SDS011;6196;48.398;11.736;2022-07-05T12:01:50;4.93;;;1.50;;
12267;SDS011;6196;48.398;11.736;2022-07-05T12:04:24;1.67;;;1.17;;
12267;SDS011;6196;48.398;11.736;2022-07-05T12:06:57;2.00;;;1.30;;
12267;SDS011;6196;48.398;11.736;2022-07-05T12:09:25;3.58;;;0.93;;
12267;SDS011;6196;48.398;11.736;2022-07-05T12:12:23;1.13;;;1.00;;
12267;SDS011;6196;48.398;11.736;2022-07-05T12:15:10;1.98;;;1.05;;
12267;SDS011;6196;48.398;11.736;2022-07-05T12:17:43;3.90;;;1.20;;
12267;SDS011;6196;48.398;11.736;2022-07-05T12:20:14;3.65;;;0.85;;
12267;SDS011;6196;48.398;11.736;2022-07-05T12:22:47;0.90;;;0.90;;
12267;SDS011;6196;48.398;11.736;2022-07-05T12:25:18;1.40;;;1.02;;
12267;SDS011;6196;48.398;11.736;2022-07-05T12:27:48;2.65;;;1.23;;
12267;SDS011;6196;48.398;11.736;2022-07-05T12:30:18;1.20;;;1.10;;
12267;SDS011;6196;48.398;11.736;2022-07-05T12:35:37;3.85;;;1.02;;
12267;SDS011;6196;48.398;11.736;2022-07-05T12:38:10;2.50;;;1.08;;
12267;SDS011;6196;48.398;11.736;2022-07-05T12:40:48;1.40;;;1.00;;
12267;SDS011;6196;48.398;11.736;2022-07-05T12:43:24;3.45;;;0.95;;
12267;SDS011;6196;48.398;11.736;2022-07-05T12:45:58;1.75;;;1.10;;
12267;SDS011;6196;48.398;11.736;2022-07-05T12:48:34;2.88;;;0.90;;
12267;SDS011;6196;48.398;11.736;2022-07-05T12:51:03;1.60;;;1.00;;
12267;SDS011;6196;48.398;11.736;2022-07-05T12:53:48;1.88;;;1.10;;
12267;SDS011;6196;48.398;11.736;2022-07-05T12:56:34;1.67;;;1.00;;
12267;SDS011;6196;48.398;11.736;2022-07-05T12:59:47;1.05;;;0.80;;
12267;SDS011;6196;48.398;11.736;2022-07-05T13:05:09;1.90;;;0.98;;
12267;SDS011;6196;48.398;11.736;2022-07-05T13:07:48;5.30;;;1.20;;
12267;SDS011;6196;48.398;11.736;2022-07-05T13:10:21;1.27;;;0.88;;
12267;SDS011;6196;48.398;11.736;2022-07-05T13:12:54;1.67;;;0.95;;
12267;SDS011;6196;48.398;11.736;2022-07-05T13:15:21;1.45;;;1.35;;
12267;SDS011;6196;48.398;11.736;2022-07-05T13:17:48;0.93;;;0.80;;
12267;SDS011;6196;48.398;11.736;2022-07-05T13:20:17;1.17;;;0.70;;
12267;SDS011;6196;48.398;11.736;2022-07-05T13:22:46;1.83;;;0.95;;
12267;SDS011;6196;48.398;11.736;2022-07-05T13:25:14;2.20;;;0.90;;
12267;SDS011;6196;48.398;11.736;2022-07-05T13:27:41;1.85;;;0.73;;
12267;SDS011;6196;48.398;11.736;2022-07-05T13:30:08;2.38;;;0.90;;
12267;SDS011;6196;48.398;11.736;2022-07-05T13:32:36;1.38;;;0.90;;
12267;SDS011;6196;48.398;11.736;2022-07-05T13:35:03;1.02;;;0.75;;
12267;SDS011;6196;48.398;11.736;2022-07-05T13:37:31;1.40;;;1.15;;
12267;SDS011;6196;48.398;11.736;2022-07-05T13:39:58;1.10;;;0.88;;
12267;SDS011;6196;48.398;11.736;2022-07-05T13:42:24;1.65;;;0.98;;
12267;SDS011;6196;48.398;11.736;2022-07-05T13:44:51;2.40;;;0.88;;
12267;SDS011;6196;48.398;11.736;2022-07-05T13:47:18;0.70;;;0.70;;
12267;SDS011;6196;48.398;11.736;2022-07-05T13:49:45;4.68;;;1.27;;
12267;SDS011;6196;48.398;11.736;2022-07-05T13:52:12;3.33;;;0.80;;
12267;SDS011;6196;48.398;11.736;2022-07-05T13:54:39;2.88;;;0.90;;
12267;SDS011;6196;48.398;11.736;2022-07-05T13:57:08;2.20;;;1.00;;
12267;SDS011;6196;48.398;11.736;2022-07-05T13:59:35;1.73;;;0.70;;
12267;SDS011;6196;48.398;11.736;2022-07-05T14:02:02;2.60;;;0.70;;
12267;SDS011;6196;48.398;11.736;2022-07-05T14:04:29;2.25;;;1.05;;
12267;SDS011;6196;48.398;11.736;2022-07-05T14:06:56;2.13;;;0.90;;
12267;SDS011;6196;48.398;11.736;2022-07-05T14:09:23;4.75;;;1.48;;
12267;SDS011;6196;48.398;11.736;2022-07-05T14:11:54;3.38;;;0.90;;
12267;SDS011;6196;48.398;11.736;2022-07-05T14:14:21;4.90;;;1.23;;
12267;SDS011;6196;48.398;11.736;2022-07-05T14:16:48;2.08;;;1.52;;
12267;SDS011;6196;48.398;11.736;2022-07-05T14:19:15;3.00;;;0.93;;
12267;SDS011;6196;48.398;11.736;2022-07-05T14:21:42;4.53;;;1.20;;
12267;SDS011;6196;48.398;11.736;2022-07-05T14:24:13;2.78;;;0.95;;
12267;SDS011;6196;48.398;11.736;2022-07-05T14:26:40;2.15;;;0.85;;
12267;SDS011;6196;48.398;11.736;2022-07-05T14:29:07;1.60;;;0.80;;
12267;SDS011;6196;48.398;11.736;2022-07-05T14:31:35;0.95;;;0.80;;
12267;SDS011;6196;48.398;11.736;2022-07-05T14:34:02;1.98;;;0.73;;
12267;SDS011;6196;48.398;11.736;2022-07-05T14:36:29;4.95;;;1.00;;
12267;SDS011;6196;48.398;11.736;2022-07-05T14:38:55;0.90;;;0.80;;
12267;SDS011;6196;48.398;11.736;2022-07-05T14:41:24;3.47;;;0.90;;
12267;SDS011;6196;48.398;11.736;2022-07-05T14:43:51;1.45;;;0.90;;
12267;SDS011;6196;48.398;11.736;2022-07-05T14:46:20;1.23;;;0.90;;
12267;SDS011;6196;48.398;11.736;2022-07-05T14:48:48;1.17;;;0.80;;
12267;SDS011;6196;48.398;11.736;2022-07-05T14:51:14;1.63;;;1.10;;
12267;SDS011;6196;48.398;11.736;2022-07-05T14:53:42;1.45;;;0.95;;
12267;SDS011;6196;48.398;11.736;2022-07-05T14:56:11;0.85;;;0.80;;
12267;SDS011;6196;48.398;11.736;2022-07-05T14:58:39;2.67;;;0.90;;
12267;SDS011;6196;48.398;11.736;2022-07-05T15:01:06;1.63;;;0.82;;
12267;SDS011;6196;48.398;11.736;2022-07-05T15:03:33;2.00;;;0.90;;
12267;SDS011;6196;48.398;11.736;2022-07-05T15:06:00;1.10;;;0.90;;
12267;SDS011;6196;48.398;11.736;2022-07-05T15:08:29;4.00;;;1.02;;
12267;SDS011;6196;48.398;11.736;2022-07-05T15:10:56;1.63;;;1.00;;
12267;SDS011;6196;48.398;11.736;2022-07-05T15:13:23;1.92;;;1.00;;
12267;SDS011;6196;48.398;11.736;2022-07-05T15:15:53;2.67;;;0.90;;
12267;SDS011;6196;48.398;11.736;2022-07-05T15:18:23;3.33;;;0.90;;
12267;SDS011;6196;48.398;11.736;2022-07-05T15:20:51;1.35;;;0.95;;
12267;SDS011;6196;48.398;11.736;2022-07-05T15:23:25;0.93;;;0.88;;
12267;SDS011;6196;48.398;11.736;2022-07-05T15:25:54;1.98;;;0.90;;
12267;SDS011;6196;48.398;11.736;2022-07-05T15:28:21;1.70;;;0.93;;
12267;SDS011;6196;48.398;11.736;2022-07-05T15:30:48;5.32;;;0.90;;
12267;SDS011;6196;48.398;11.736;2022-07-05T15:33:16;3.38;;;1.33;;
12267;SDS011;6196;48.398;11.736;2022-07-05T15:35:43;2.65;;;0.90;;